createdAt,value
2022-07-29T00:01:43.232Z,19.35
2022-07-29T00:04:11.679Z,14.20
2022-07-29T00:06:40.075Z,15.48
2022-07-29T00:09:09.101Z,14.10
2022-07-29T00:11:37.530Z,14.55
2022-07-29T00:14:07.672Z,17.40
2022-07-29T00:16:36.457Z,18.63
2022-07-29T00:19:04.991Z,18.17
2022-07-29T00:21:33.368Z,12.88
2022-07-29T00:24:01.823Z,15.55
2022-07-29T00:26:32.694Z,12.73
2022-07-29T00:29:32.556Z,15.98
2022-07-29T00:31:51.776Z,16.35
2022-07-29T00:34:37.604Z,14.02
2022-07-29T00:37:06.158Z,15.68
2022-07-29T00:39:36.309Z,13.80
2022-07-29T00:42:05.755Z,13.40
2022-07-29T00:44:39.303Z,17.73
2022-07-29T00:47:09.640Z,12.75
2022-07-29T00:49:38.667Z,17.52
2022-07-29T00:52:09.640Z,15.57
2022-07-29T00:54:44.262Z,16.55
2022-07-29T00:57:14.753Z,16.60
2022-07-29T00:59:43.051Z,14.73
2022-07-29T01:02:12.891Z,16.45
2022-07-29T01:04:42.371Z,17.50
2022-07-29T01:07:10.746Z,23.23
2022-07-29T01:09:45.275Z,15.93
2022-07-29T01:12:18.727Z,17.23
2022-07-29T01:14:48.359Z,19.40
2022-07-29T01:17:23.045Z,18.30
2022-07-29T01:19:58.041Z,15.45
2022-07-29T01:22:32.956Z,16.23
2022-07-29T01:25:39.904Z,19.13
2022-07-29T01:28:24.543Z,16.10
2022-07-29T01:30:57.424Z,17.27
2022-07-29T01:33:46.285Z,20.17
2022-07-29T01:36:18.361Z,12.77
2022-07-29T01:38:56.947Z,18.50
2022-07-29T01:41:25.771Z,16.95
2022-07-29T01:43:59.218Z,17.65
2022-07-29T01:46:34.121Z,19.60
2022-07-29T01:49:09.172Z,16.50
2022-07-29T01:51:45.705Z,10.95
2022-07-29T01:54:20.695Z,14.98
2022-07-29T01:56:53.131Z,17.95
2022-07-29T01:59:24.253Z,18.27
2022-07-29T02:01:57.104Z,15.18
2022-07-29T02:04:29.612Z,14.48
2022-07-29T02:07:07.835Z,15.73
2022-07-29T02:09:39.001Z,13.60
2022-07-29T02:12:09.383Z,13.55
2022-07-29T02:14:41.461Z,15.00
2022-07-29T02:17:14.373Z,15.88
2022-07-29T02:19:46.033Z,14.75
2022-07-29T02:22:15.521Z,15.50
2022-07-29T02:24:46.620Z,12.82
2022-07-29T02:27:16.175Z,19.13
2022-07-29T02:29:45.221Z,15.18
2022-07-29T02:32:16.406Z,14.13
2022-07-29T02:34:45.730Z,13.77
2022-07-29T02:37:15.238Z,15.25
2022-07-29T02:39:45.822Z,13.98
2022-07-29T02:42:18.036Z,15.80
2022-07-29T02:44:46.649Z,17.80
2022-07-29T02:47:22.734Z,15.98
2022-07-29T02:49:56.069Z,14.77
2022-07-29T02:52:28.417Z,18.08
2022-07-29T02:55:00.230Z,17.38
2022-07-29T02:57:35.867Z,17.65
2022-07-29T03:00:25.767Z,18.13
2022-07-29T03:02:57.417Z,20.52
2022-07-29T03:05:26.444Z,16.20
2022-07-29T03:07:58.986Z,13.27
2022-07-29T03:10:28.536Z,22.33
2022-07-29T03:12:59.046Z,16.55
2022-07-29T03:15:28.260Z,16.00
2022-07-29T03:17:58.608Z,14.82
2022-07-29T03:20:27.121Z,18.25
2022-07-29T03:22:55.434Z,12.73
2022-07-29T03:25:24.267Z,15.70
2022-07-29T03:27:52.486Z,19.02
2022-07-29T03:30:22.191Z,18.55
2022-07-29T03:32:52.337Z,21.67
2022-07-29T03:35:22.505Z,19.67
2022-07-29T03:37:51.181Z,18.52
2022-07-29T03:40:23.990Z,26.95
2022-07-29T03:42:56.026Z,26.45
2022-07-29T03:45:26.024Z,16.95
2022-07-29T03:48:00.889Z,25.33
2022-07-29T03:50:32.035Z,23.85
2022-07-29T03:53:00.781Z,27.85
2022-07-29T03:55:31.638Z,23.90
2022-07-29T03:58:03.061Z,26.50
2022-07-29T04:00:34.558Z,18.58
2022-07-29T04:03:03.723Z,16.67
2022-07-29T04:05:33.457Z,16.95
2022-07-29T04:08:01.759Z,15.60
2022-07-29T04:10:32.211Z,17.25
2022-07-29T04:13:02.878Z,18.02
2022-07-29T04:15:31.985Z,17.27
2022-07-29T04:18:00.838Z,15.98
2022-07-29T04:20:29.349Z,15.52
2022-07-29T04:22:59.116Z,14.57
2022-07-29T04:25:27.719Z,20.65
2022-07-29T04:28:04.858Z,20.27
2022-07-29T04:30:34.558Z,20.30
2022-07-29T04:33:03.130Z,14.95
2022-07-29T04:35:38.378Z,17.85
2022-07-29T04:38:15.573Z,16.65
2022-07-29T04:40:45.446Z,17.95
2022-07-29T04:43:16.815Z,13.82
2022-07-29T04:45:50.986Z,18.30
2022-07-29T04:48:19.459Z,16.35
2022-07-29T04:50:47.715Z,17.15
2022-07-29T04:53:17.252Z,18.35
2022-07-29T04:55:45.877Z,15.25
2022-07-29T04:58:14.226Z,14.77
2022-07-29T05:00:42.496Z,16.85
2022-07-29T05:03:11.083Z,15.48
2022-07-29T05:05:39.465Z,16.90
2022-07-29T05:08:07.789Z,17.08
2022-07-29T05:10:39.058Z,13.55
2022-07-29T05:13:07.869Z,13.45
2022-07-29T05:15:37.445Z,14.88
2022-07-29T05:18:06.464Z,15.73
2022-07-29T05:20:35.618Z,10.80
2022-07-29T05:23:04.843Z,16.52
2022-07-29T05:25:43.719Z,14.70
2022-07-29T05:28:14.829Z,15.45
2022-07-29T05:30:43.228Z,12.50
2022-07-29T05:33:35.633Z,11.88
2022-07-29T05:36:00.797Z,14.30
2022-07-29T05:38:29.654Z,15.98
2022-07-29T05:40:59.621Z,15.65
2022-07-29T05:43:29.860Z,12.23
2022-07-29T05:45:58.610Z,12.43
2022-07-29T05:48:27.315Z,14.57
2022-07-29T05:50:56.510Z,15.82
2022-07-29T05:53:25.088Z,15.82
2022-07-29T05:55:53.818Z,16.23
2022-07-29T05:58:22.597Z,9.85
2022-07-29T06:00:52.227Z,16.98
2022-07-29T06:03:20.465Z,14.98
2022-07-29T06:05:48.932Z,10.98
2022-07-29T06:08:17.160Z,14.27
2022-07-29T06:10:46.560Z,12.15
2022-07-29T06:13:16.850Z,15.32
2022-07-29T06:15:46.285Z,16.55
2022-07-29T06:18:15.944Z,16.77
2022-07-29T06:20:44.736Z,13.05
2022-07-29T06:23:12.989Z,16.52
2022-07-29T06:25:42.352Z,12.77
2022-07-29T06:28:10.798Z,12.93
2022-07-29T06:30:39.217Z,16.42
2022-07-29T06:33:07.849Z,14.98
2022-07-29T06:35:41.916Z,14.57
2022-07-29T06:38:29.877Z,14.18
2022-07-29T06:41:03.184Z,13.35
2022-07-29T06:43:52.065Z,19.38
2022-07-29T06:46:24.117Z,15.10
2022-07-29T06:48:53.627Z,11.63
2022-07-29T06:51:24.355Z,11.18
2022-07-29T06:53:58.082Z,17.05
2022-07-29T06:56:28.587Z,10.77
2022-07-29T06:58:57.192Z,14.63
2022-07-29T07:01:25.507Z,10.63
2022-07-29T07:03:53.742Z,9.73
2022-07-29T07:06:23.771Z,10.23
2022-07-29T07:08:51.985Z,14.15
2022-07-29T07:11:20.297Z,10.82
2022-07-29T07:13:48.952Z,16.35
2022-07-29T07:16:17.391Z,9.55
2022-07-29T07:18:46.211Z,12.35
2022-07-29T07:21:18.772Z,9.32
2022-07-29T07:23:49.045Z,6.75
2022-07-29T07:26:17.793Z,9.95
2022-07-29T07:28:46.003Z,9.93
2022-07-29T07:31:15.194Z,9.77
2022-07-29T07:33:43.661Z,8.88
2022-07-29T07:36:12.013Z,7.43
2022-07-29T07:38:40.378Z,12.70
2022-07-29T07:41:10.186Z,13.15
2022-07-29T07:43:38.815Z,10.90
2022-07-29T07:46:07.071Z,9.73
2022-07-29T07:48:35.835Z,7.40
2022-07-29T07:51:04.670Z,9.50
2022-07-29T07:53:32.904Z,8.90
2022-07-29T07:56:16.988Z,8.30
2022-07-29T07:58:46.763Z,11.30
2022-07-29T08:01:15.346Z,9.48
2022-07-29T08:03:43.848Z,9.82
2022-07-29T08:06:12.026Z,7.68
2022-07-29T08:08:40.733Z,10.48
2022-07-29T08:11:09.945Z,8.38
2022-07-29T08:13:39.432Z,12.65
2022-07-29T08:16:14.086Z,7.10
2022-07-29T08:18:44.842Z,8.88
2022-07-29T08:21:15.281Z,10.07
2022-07-29T08:23:57.625Z,8.45
2022-07-29T08:26:27.563Z,8.00
2022-07-29T08:28:55.991Z,8.80
2022-07-29T08:31:25.867Z,9.60
2022-07-29T08:33:54.361Z,10.38
2022-07-29T08:36:23.045Z,9.52
2022-07-29T08:38:51.898Z,8.45
2022-07-29T08:41:20.749Z,8.80
2022-07-29T08:43:49.337Z,8.98
2022-07-29T08:46:18.448Z,6.28
2022-07-29T08:48:49.204Z,7.53
2022-07-29T08:51:21.577Z,8.77
2022-07-29T08:53:51.339Z,7.25
2022-07-29T08:56:21.405Z,6.65
2022-07-29T08:58:52.282Z,9.65
2022-07-29T09:01:36.482Z,8.20
2022-07-29T09:04:14.216Z,6.75
2022-07-29T09:06:46.847Z,7.00
2022-07-29T09:09:15.672Z,6.38
2022-07-29T09:11:44.818Z,6.80
2022-07-29T09:14:15.010Z,6.70
2022-07-29T09:16:54.040Z,12.32
2022-07-29T09:19:30.328Z,9.77
2022-07-29T09:22:03.065Z,6.28
2022-07-29T09:24:41.153Z,6.07
2022-07-29T09:27:28.092Z,5.78
2022-07-29T09:30:01.436Z,4.85
2022-07-29T09:32:30.550Z,5.47
2022-07-29T09:35:20.449Z,6.65
2022-07-29T09:37:49.611Z,4.65
2022-07-29T09:40:19.526Z,5.13
2022-07-29T09:42:48.482Z,4.18
2022-07-29T09:45:30.258Z,6.90
2022-07-29T09:48:01.319Z,5.05
2022-07-29T09:50:42.367Z,8.23
2022-07-29T09:53:11.406Z,6.78
2022-07-29T09:55:50.776Z,4.88
2022-07-29T09:58:22.679Z,4.88
2022-07-29T10:00:52.755Z,5.97
2022-07-29T10:03:22.472Z,7.93
2022-07-29T10:08:46.443Z,7.28
2022-07-29T10:11:17.286Z,7.97
2022-07-29T10:13:47.166Z,9.20
2022-07-29T10:16:17.285Z,5.35
2022-07-29T10:18:47.795Z,5.63
2022-07-29T10:21:36.028Z,7.07
2022-07-29T10:24:14.794Z,6.75
2022-07-29T10:26:44.155Z,5.72
2022-07-29T10:29:13.746Z,7.55
2022-07-29T10:31:52.064Z,5.00
2022-07-29T10:34:27.865Z,7.78
2022-07-29T10:37:05.191Z,10.90
2022-07-29T10:39:49.626Z,5.97
2022-07-29T10:42:33.242Z,7.32
2022-07-29T10:45:04.308Z,6.43
2022-07-29T10:47:35.341Z,6.95
2022-07-29T10:50:06.127Z,7.55
2022-07-29T10:52:55.644Z,9.65
2022-07-29T10:55:35.893Z,6.93
2022-07-29T10:58:15.498Z,4.85
2022-07-29T11:00:47.943Z,6.55
2022-07-29T11:03:49.666Z,8.88
2022-07-29T11:06:26.999Z,5.07
2022-07-29T11:09:20.184Z,8.38
2022-07-29T11:11:51.530Z,5.43
2022-07-29T11:14:57.761Z,6.78
2022-07-29T11:17:26.868Z,5.32
2022-07-29T11:20:50.906Z,6.28
2022-07-29T11:23:26.082Z,4.40
2022-07-29T11:26:18.856Z,5.55
2022-07-29T11:29:00.313Z,8.70
2022-07-29T11:31:37.426Z,5.88
2022-07-29T11:34:30.254Z,6.50
2022-07-29T11:37:27.664Z,5.50
2022-07-29T11:40:21.314Z,7.00
2022-07-29T11:42:52.125Z,6.50
2022-07-29T11:45:44.122Z,12.23
2022-07-29T11:51:12.220Z,5.18
2022-07-29T11:53:41.743Z,6.72
2022-07-29T11:56:11.330Z,5.43
2022-07-29T11:58:44.683Z,5.93
2022-07-29T12:01:19.449Z,7.55
2022-07-29T12:03:47.796Z,5.00
2022-07-29T12:06:18.358Z,7.57
2022-07-29T12:08:47.404Z,4.82
2022-07-29T12:11:22.794Z,8.63
2022-07-29T12:13:52.918Z,5.13
2022-07-29T12:16:25.970Z,5.47
2022-07-29T12:18:59.793Z,6.82
2022-07-29T12:21:28.788Z,5.63
2022-07-29T12:24:05.629Z,3.80
2022-07-29T12:26:38.153Z,4.72
2022-07-29T12:29:14.088Z,5.60
2022-07-29T12:31:47.346Z,5.10
2022-07-29T12:34:17.766Z,4.25
2022-07-29T12:36:46.425Z,5.97
2022-07-29T12:39:15.020Z,4.65
2022-07-29T12:41:43.601Z,2.88
2022-07-29T12:44:12.367Z,3.17
2022-07-29T12:46:40.657Z,4.93
2022-07-29T12:49:10.984Z,5.97
2022-07-29T12:51:41.775Z,5.53
2022-07-29T12:54:12.444Z,6.85
2022-07-29T12:56:43.539Z,3.30
2022-07-29T12:59:17.773Z,3.40
2022-07-29T13:01:48.065Z,4.20
2022-07-29T13:04:28.581Z,4.03
2022-07-29T13:07:08.328Z,3.67
2022-07-29T13:09:42.506Z,5.35
2022-07-29T13:12:12.081Z,3.85
2022-07-29T13:14:42.117Z,5.55
2022-07-29T13:17:12.281Z,5.70
2022-07-29T13:19:43.238Z,4.00
2022-07-29T13:22:12.869Z,3.70
2022-07-29T13:24:51.827Z,5.25
2022-07-29T13:27:21.588Z,5.30
2022-07-29T13:29:52.367Z,3.17
2022-07-29T13:32:27.676Z,3.85
2022-07-29T13:34:59.061Z,4.47
2022-07-29T13:37:30.411Z,4.18
2022-07-29T13:40:00.239Z,6.65
2022-07-29T13:42:28.976Z,6.68
2022-07-29T13:44:57.180Z,6.30
2022-07-29T13:47:32.680Z,5.30
2022-07-29T13:50:03.130Z,3.22
2022-07-29T13:52:31.806Z,3.45
2022-07-29T13:55:00.120Z,6.10
2022-07-29T13:57:29.237Z,3.53
2022-07-29T13:59:58.076Z,2.60
2022-07-29T14:02:26.518Z,5.65
2022-07-29T14:04:55.245Z,3.20
2022-07-29T14:07:25.526Z,4.43
2022-07-29T14:09:53.804Z,2.28
2022-07-29T14:12:22.085Z,3.30
2022-07-29T14:14:50.591Z,3.25
2022-07-29T14:17:18.914Z,2.25
2022-07-29T14:19:47.260Z,2.97
2022-07-29T14:22:15.693Z,5.95
2022-07-29T14:24:46.109Z,3.17
2022-07-29T14:27:15.242Z,3.67
2022-07-29T14:29:43.763Z,3.47
2022-07-29T14:32:12.471Z,3.13
2022-07-29T14:34:41.264Z,4.22
2022-07-29T14:37:16.102Z,3.20
2022-07-29T14:39:46.061Z,3.83
2022-07-29T14:42:14.976Z,3.70
2022-07-29T14:44:43.281Z,2.47
2022-07-29T14:47:12.972Z,4.28
2022-07-29T14:49:41.599Z,6.80
2022-07-29T14:52:09.840Z,4.93
2022-07-29T14:54:38.164Z,2.65
2022-07-29T14:57:08.094Z,2.30
2022-07-29T14:59:36.799Z,3.10
2022-07-29T15:02:05.157Z,2.50
2022-07-29T15:04:34.038Z,5.82
2022-07-29T15:07:02.666Z,4.30
2022-07-29T15:09:30.897Z,2.92
2022-07-29T15:11:59.822Z,6.63
2022-07-29T15:14:29.899Z,5.10
2022-07-29T15:16:58.323Z,3.35
2022-07-29T15:19:27.388Z,3.88
2022-07-29T15:21:59.621Z,11.43
2022-07-29T15:24:28.612Z,5.53
2022-07-29T15:26:57.051Z,3.65
2022-07-29T15:29:25.573Z,4.20
2022-07-29T15:31:56.216Z,4.40
2022-07-29T15:34:25.151Z,1.77
2022-07-29T15:36:54.106Z,3.67
2022-07-29T15:39:23.652Z,3.20
2022-07-29T15:41:52.096Z,4.40
2022-07-29T15:44:20.920Z,3.83
2022-07-29T15:47:06.102Z,3.40
2022-07-29T15:49:48.560Z,2.95
2022-07-29T15:52:25.206Z,3.42
2022-07-29T15:54:55.890Z,3.70
2022-07-29T15:57:25.638Z,2.92
2022-07-29T15:59:54.239Z,3.10
2022-07-29T16:02:22.570Z,3.88
2022-07-29T16:04:52.457Z,5.07
2022-07-29T16:07:21.166Z,3.17
2022-07-29T16:09:53.025Z,4.30
2022-07-29T16:12:22.480Z,3.83
2022-07-29T16:14:51.499Z,3.17
2022-07-29T16:17:20.670Z,2.95
2022-07-29T16:19:49.356Z,2.67
2022-07-29T16:22:19.056Z,2.63
2022-07-29T16:24:47.371Z,5.10
2022-07-29T16:27:15.863Z,2.42
2022-07-29T16:29:44.128Z,4.18
2022-07-29T16:32:12.496Z,3.10
2022-07-29T16:34:41.540Z,2.45
2022-07-29T16:37:09.786Z,4.80
2022-07-29T16:39:39.655Z,3.67
2022-07-29T16:42:08.155Z,2.88
2022-07-29T16:44:36.941Z,3.22
2022-07-29T16:47:05.653Z,3.83
2022-07-29T16:49:34.148Z,5.00
2022-07-29T16:52:02.503Z,3.40
2022-07-29T16:54:30.864Z,3.80
2022-07-29T16:57:02.302Z,5.03
2022-07-29T16:59:31.182Z,3.42
2022-07-29T17:02:02.540Z,3.42
2022-07-29T17:04:31.693Z,5.18
2022-07-29T17:07:00.546Z,2.33
2022-07-29T17:09:29.385Z,1.80
2022-07-29T17:11:58.143Z,2.58
2022-07-29T17:14:31.499Z,3.03
2022-07-29T17:17:03.179Z,5.38
2022-07-29T17:19:33.680Z,5.28
2022-07-29T17:22:10.610Z,2.45
2022-07-29T17:24:43.364Z,4.32
2022-07-29T17:27:12.512Z,3.55
2022-07-29T17:29:42.326Z,3.90
2022-07-29T17:32:11.869Z,5.30
2022-07-29T17:34:42.125Z,6.63
2022-07-29T17:37:12.205Z,3.63
2022-07-29T17:39:42.776Z,3.90
2022-07-29T17:42:13.709Z,6.63
2022-07-29T17:44:43.601Z,3.08
2022-07-29T17:47:16.343Z,3.83
2022-07-29T17:49:45.367Z,3.22
2022-07-29T17:52:14.033Z,6.25
2022-07-29T17:54:42.256Z,4.82
2022-07-29T17:57:10.553Z,4.35
2022-07-29T17:59:39.011Z,5.15
2022-07-29T18:02:08.719Z,3.15
2022-07-29T18:04:37.041Z,5.50
2022-07-29T18:07:05.730Z,4.30
2022-07-29T18:09:34.066Z,3.28
2022-07-29T18:12:02.354Z,7.20
2022-07-29T18:14:45.496Z,5.07
2022-07-29T18:17:15.363Z,2.50
2022-07-29T18:19:43.626Z,7.28
2022-07-29T18:22:13.261Z,4.55
2022-07-29T18:24:41.880Z,5.53
2022-07-29T18:27:10.104Z,3.40
2022-07-29T18:29:38.454Z,4.45
2022-07-29T18:32:07.636Z,2.38
2022-07-29T18:34:37.579Z,4.22
2022-07-29T18:37:05.876Z,6.50
2022-07-29T18:39:34.512Z,3.65
2022-07-29T18:42:02.891Z,5.43
2022-07-29T18:44:31.243Z,5.93
2022-07-29T18:47:00.081Z,10.27
2022-07-29T18:49:28.828Z,7.88
2022-07-29T18:51:58.753Z,6.53
2022-07-29T18:54:27.564Z,8.55
2022-07-29T18:56:55.990Z,7.28
2022-07-29T18:59:25.221Z,6.90
2022-07-29T19:01:54.399Z,8.13
2022-07-29T19:04:22.929Z,8.63
2022-07-29T19:06:51.624Z,10.45
2022-07-29T19:09:21.635Z,10.85
2022-07-29T19:11:55.518Z,4.63
2022-07-29T19:14:24.773Z,9.52
2022-07-29T19:16:53.197Z,10.13
2022-07-29T19:19:21.469Z,7.00
2022-07-29T19:21:49.964Z,8.80
2022-07-29T19:24:18.326Z,6.10
2022-07-29T19:26:48.033Z,6.60
2022-07-29T19:29:17.429Z,6.93
2022-07-29T19:31:46.008Z,8.15
2022-07-29T19:34:14.417Z,6.00
2022-07-29T19:36:43.210Z,7.68
2022-07-29T19:39:11.576Z,6.90
2022-07-29T19:41:40.255Z,7.07
2022-07-29T19:44:11.371Z,7.15
2022-07-29T19:46:39.757Z,7.07
2022-07-29T19:49:08.205Z,7.30
2022-07-29T19:51:37.272Z,9.88
2022-07-29T19:54:06.381Z,12.13
2022-07-29T19:56:34.720Z,8.27
2022-07-29T19:59:08.856Z,14.43
2022-07-29T20:01:37.304Z,8.45
2022-07-29T20:04:05.978Z,9.10
2022-07-29T20:06:34.994Z,7.20
2022-07-29T20:09:04.304Z,8.27
2022-07-29T20:11:36.675Z,10.82
2022-07-29T20:14:06.393Z,9.05
2022-07-29T20:16:36.419Z,8.32
2022-07-29T20:19:05.026Z,6.47
2022-07-29T20:21:34.015Z,4.32
2022-07-29T20:24:04.425Z,6.97
2022-07-29T20:26:32.939Z,9.27
2022-07-29T20:29:05.133Z,9.25
2022-07-29T20:31:35.012Z,9.32
2022-07-29T20:34:03.918Z,7.70
2022-07-29T20:36:32.694Z,11.73
2022-07-29T20:39:01.099Z,13.20
2022-07-29T20:41:29.866Z,6.13
2022-07-29T20:43:58.243Z,6.63
2022-07-29T20:46:26.743Z,8.75
2022-07-29T20:48:56.840Z,8.35
2022-07-29T20:51:25.684Z,8.07
2022-07-29T20:53:54.156Z,6.90
2022-07-29T20:56:23.058Z,14.00
2022-07-29T20:58:51.518Z,7.72
2022-07-29T21:01:19.919Z,11.40
2022-07-29T21:03:48.519Z,6.70
2022-07-29T21:06:18.154Z,11.07
2022-07-29T21:08:46.446Z,8.65
2022-07-29T21:11:14.970Z,7.97
2022-07-29T21:13:45.443Z,10.23
2022-07-29T21:16:14.883Z,7.63
2022-07-29T21:18:46.441Z,13.00
2022-07-29T21:21:17.353Z,10.30
2022-07-29T21:23:46.781Z,9.32
2022-07-29T21:26:16.018Z,9.02
2022-07-29T21:28:43.918Z,11.48
2022-07-29T21:31:14.156Z,10.30
2022-07-29T21:33:43.910Z,8.40
2022-07-29T21:36:46.821Z,9.98
2022-07-29T21:39:07.227Z,9.88
2022-07-29T21:41:36.146Z,8.43
2022-07-29T21:44:04.811Z,10.68
2022-07-29T21:46:33.206Z,9.75
2022-07-29T21:49:01.673Z,6.65
2022-07-29T21:51:30.464Z,10.75
2022-07-29T21:53:58.868Z,6.95
2022-07-29T21:56:30.151Z,6.50
2022-07-29T21:59:00.095Z,10.00
2022-07-29T22:01:28.490Z,9.43
2022-07-29T22:04:07.459Z,10.57
2022-07-29T22:06:35.881Z,10.90
2022-07-29T22:09:04.453Z,9.15
2022-07-29T22:11:36.358Z,8.57
2022-07-29T22:14:04.824Z,9.18
2022-07-29T22:16:33.295Z,10.88
2022-07-29T22:19:03.776Z,9.93
2022-07-29T22:21:32.285Z,9.25
2022-07-29T22:24:01.619Z,10.18
2022-07-29T22:26:30.399Z,12.60
2022-07-29T22:29:00.119Z,12.43
2022-07-29T22:31:28.461Z,10.88
2022-07-29T22:33:57.010Z,7.22
2022-07-29T22:36:26.546Z,9.38
2022-07-29T22:38:54.936Z,10.63
2022-07-29T22:41:23.437Z,8.02
2022-07-29T22:43:51.763Z,11.32
2022-07-29T22:46:21.447Z,10.77
2022-07-29T22:48:50.334Z,5.90
2022-07-29T22:51:18.650Z,8.57
2022-07-29T22:53:47.321Z,11.57
2022-07-29T22:56:16.522Z,9.02
2022-07-29T22:58:44.803Z,7.20
2022-07-29T23:01:13.378Z,8.40
2022-07-29T23:03:51.263Z,8.02
2022-07-29T23:06:19.878Z,7.25
2022-07-29T23:08:48.429Z,5.85
2022-07-29T23:11:16.887Z,8.50
2022-07-29T23:13:45.282Z,4.78
2022-07-29T23:16:14.047Z,10.13
2022-07-29T23:18:55.949Z,5.43
2022-07-29T23:21:24.611Z,8.38
2022-07-29T23:23:53.433Z,7.43
2022-07-29T23:26:21.848Z,9.43
2022-07-29T23:28:50.317Z,7.80
2022-07-29T23:31:18.991Z,9.48
2022-07-29T23:33:47.349Z,9.65
2022-07-29T23:36:17.156Z,7.53
2022-07-29T23:38:46.736Z,10.25
2022-07-29T23:41:15.113Z,7.22
2022-07-29T23:43:43.664Z,4.75
2022-07-29T23:46:12.134Z,8.00
2022-07-29T23:48:40.550Z,7.38
2022-07-29T23:51:09.040Z,8.15
2022-07-29T23:53:38.805Z,8.43
2022-07-29T23:56:23.565Z,11.30
2022-07-29T23:58:51.857Z,9.98
